Time;durP1;ratioP1;P1;durP2;ratioP2;P2;SDS_P1;SDS_P2;PMS_P1;PMS_P2;Temp;Humidity;BMP_temperature;BMP_pressure;BME280_temperature;BME280_humidity;BME280_pressure;Samples;Min_cycle;Max_cycle;Signal;HPM_P1;HPM_P2
2022/02/11 00:07:56;;;;;;;;;;;7.20;99.90;;;;;;5032551;28;20000;-73
2022/02/11 00:10:21;;;;;;;;;;;7.10;99.90;;;;;;5031480;28;19935;-73
2022/02/11 00:12:47;;;;;;;;;;;7.30;99.90;;;;;;5032272;28;20348;-73
2022/02/11 00:15:58;;;;;;;;;;;7.20;99.90;;;;;;5031980;28;19905;-73
2022/02/11 00:17:58;;;;;;;;;;;7.20;99.90;;;;;;5027602;28;19913;-74
2022/02/11 00:20:24;;;;;;;;;;;7.30;99.90;;;;;;5031038;28;19959;-73
2022/02/11 00:22:50;;;;;;;;;;;7.20;99.90;;;;;;5030885;28;20035;-73
2022/02/11 00:25:16;;;;;;;;;;;7.10;99.90;;;;;;5030894;28;19916;-73
2022/02/11 00:28:14;;;;;;;;;;;7.30;99.90;;;;;;5031901;28;19917;-73
2022/02/11 00:33:23;;;;;;;;;;;7.30;99.90;;;;;;5032197;28;19920;-73
2022/02/11 00:35:57;;;;;;;;;;;7.20;99.90;;;;;;5032064;28;20326;-73
2022/02/11 00:38:38;;;;;;;;;;;7.30;99.90;;;;;;5032740;28;19955;-73
2022/02/11 01:02:48;;;;;;;;;;;8.10;99.90;;;;;;5036021;28;19916;-74
2022/02/11 01:05:13;;;;;;;;;;;7.50;99.90;;;;;;5035731;28;19912;-73
2022/02/11 01:07:39;;;;;;;;;;;7.40;99.90;;;;;;5034995;28;19909;-73
2022/02/11 01:10:05;;;;;;;;;;;7.50;99.90;;;;;;5034700;28;20361;-73
2022/02/11 01:12:30;;;;;;;;;;;7.20;99.90;;;;;;5035401;28;20341;-74
2022/02/11 01:14:57;;;;;;;;;;;7.50;99.90;;;;;;5034075;28;20007;-74
2022/02/11 01:27:32;;;;;;;;;;;7.60;99.90;;;;;;5035557;28;19910;-73
2022/02/11 01:35:21;;;;;;;;;;;7.50;99.90;;;;;;5035506;28;19967;-74
2022/02/11 01:43:48;;;;;;;;;;;7.40;99.90;;;;;;5035106;28;19912;-74
2022/02/11 01:46:55;;;;;;;;;;;7.40;99.90;;;;;;5034775;28;19904;-74
2022/02/11 01:54:19;;;;;;;;;;;6.80;99.90;;;;;;5015047;28;19956;-75
2022/02/11 01:57:05;;;;;;;;;;;6.60;99.90;;;;;;5021019;28;19913;-75
2022/02/11 02:56:51;;;;;;;;;;;4.00;99.90;;;;;;5033528;28;20428;-74
2022/02/11 02:59:55;;;;;;;;;;;4.10;99.90;;;;;;5032503;28;19959;-74
2022/02/11 03:59:21;;;;;;;;;;;3.60;99.90;;;;;;5031483;28;19913;-73
2022/02/11 04:55:24;;;;;;;;;;;3.70;99.90;;;;;;5032315;28;19955;-74
2022/02/11 05:00:34;;;;;;;;;;;4.20;99.90;;;;;;5031091;28;20472;-75
2022/02/11 05:03:00;;;;;;;;;;;3.80;99.90;;;;;;5031676;28;19909;-73
2022/02/11 05:05:25;;;;;;;;;;;4.00;99.90;;;;;;5031711;28;19916;-74
2022/02/11 05:07:51;;;;;;;;;;;3.60;99.90;;;;;;5030596;28;19909;-76
2022/02/11 05:10:19;;;;;;;;;;;3.80;99.90;;;;;;5030814;28;19968;-74
2022/02/11 05:12:45;;;;;;;;;;;4.00;99.90;;;;;;5031804;28;19913;-73
2022/02/11 05:15:11;;;;;;;;;;;3.80;99.90;;;;;;5031470;28;19912;-74
2022/02/11 05:17:37;;;;;;;;;;;4.50;99.90;;;;;;5031178;28;19967;-74
2022/02/11 05:20:04;;;;;;;;;;;4.20;99.90;;;;;;5031144;28;19962;-74
2022/02/11 05:22:29;;;;;;;;;;;3.70;99.90;;;;;;5032069;28;19912;-75
2022/02/11 05:24:55;;;;;;;;;;;3.70;99.90;;;;;;5032245;28;19913;-74
2022/02/11 05:27:20;;;;;;;;;;;3.70;99.90;;;;;;5035269;28;19931;-75
2022/02/11 05:29:46;;;;;;;;;;;3.40;99.90;;;;;;5033879;28;19917;-75
2022/02/11 05:32:11;;;;;;;;;;;3.60;99.90;;;;;;5034717;28;19917;-75
2022/02/11 05:34:37;;;;;;;;;;;3.20;99.90;;;;;;5035032;28;19909;-74
2022/02/11 05:37:03;;;;;;;;;;;3.10;99.90;;;;;;5035086;28;20362;-75
2022/02/11 05:39:28;;;;;;;;;;;3.00;99.90;;;;;;5034164;28;19905;-75
2022/02/11 05:41:54;;;;;;;;;;;3.70;99.90;;;;;;5034680;28;19909;-75
2022/02/11 05:44:19;;;;;;;;;;;2.80;99.90;;;;;;5034689;28;19963;-76
2022/02/11 05:46:45;;;;;;;;;;;2.90;99.90;;;;;;5034800;28;20336;-75
2022/02/11 05:49:10;;;;;;;;;;;2.80;99.90;;;;;;5032818;28;19916;-75
2022/02/11 05:51:36;;;;;;;;;;;2.90;99.90;;;;;;5033367;28;19917;-75
2022/02/11 05:54:02;;;;;;;;;;;2.80;99.90;;;;;;5034847;28;19939;-75
2022/02/11 05:56:27;;;;;;;;;;;3.50;99.90;;;;;;5034839;28;19909;-75
2022/02/11 05:58:53;;;;;;;;;;;3.70;99.90;;;;;;5033715;28;19905;-75
2022/02/11 06:01:18;;;;;;;;;;;3.40;99.90;;;;;;5024513;28;19963;-75
2022/02/11 06:03:44;;;;;;;;;;;2.40;99.90;;;;;;5034398;28;19909;-75
2022/02/11 06:06:09;;;;;;;;;;;3.00;99.90;;;;;;5032816;28;19927;-75
2022/02/11 06:08:35;;;;;;;;;;;3.00;99.90;;;;;;5033816;28;19909;-75
2022/02/11 06:11:00;;;;;;;;;;;3.30;99.90;;;;;;5033764;28;19921;-75
2022/02/11 06:13:26;;;;;;;;;;;3.80;99.90;;;;;;5034357;28;20000;-75
2022/02/11 06:15:52;;;;;;;;;;;3.00;99.90;;;;;;5033980;28;19920;-75
2022/02/11 06:18:18;;;;;;;;;;;2.80;99.90;;;;;;5032519;28;19921;-75
2022/02/11 06:20:43;;;;;;;;;;;2.80;99.90;;;;;;5033066;28;19909;-75
2022/02/11 06:23:09;;;;;;;;;;;2.80;99.90;;;;;;5033968;28;19905;-75
2022/02/11 06:25:34;;;;;;;;;;;2.70;99.90;;;;;;5034204;28;20362;-75
2022/02/11 06:28:00;;;;;;;;;;;2.70;99.90;;;;;;5034161;28;21199;-75
2022/02/11 06:30:26;;;;;;;;;;;3.50;99.90;;;;;;5032455;28;20266;-76
2022/02/11 06:32:52;;;;;;;;;;;2.90;99.90;;;;;;5033536;28;19925;-75
2022/02/11 06:35:18;;;;;;;;;;;3.40;99.90;;;;;;5033526;28;19924;-75
2022/02/11 06:37:45;;;;;;;;;;;3.40;99.90;;;;;;5032873;28;19916;-75
2022/02/11 06:40:14;;;;;;;;;;;3.50;99.90;;;;;;5032734;28;20399;-75
2022/02/11 06:42:40;;;;;;;;;;;2.60;99.90;;;;;;5033546;28;20022;-74
2022/02/11 06:45:06;;;;;;;;;;;2.60;99.90;;;;;;5033377;28;19966;-75
2022/02/11 06:47:32;;;;;;;;;;;2.50;99.90;;;;;;5033472;28;20046;-75
2022/02/11 06:49:57;;;;;;;;;;;2.60;99.90;;;;;;5032691;28;20285;-75
2022/02/11 06:52:23;;;;;;;;;;;2.70;99.90;;;;;;5033373;28;19905;-75
2022/02/11 06:54:48;;;;;;;;;;;2.80;99.90;;;;;;5033661;28;19958;-75
2022/02/11 06:57:14;;;;;;;;;;;3.10;99.90;;;;;;5033331;28;19956;-75
2022/02/11 06:59:39;;;;;;;;;;;3.60;99.90;;;;;;5032399;28;19916;-76
2022/02/11 07:02:12;;;;;;;;;;;2.80;99.90;;;;;;5031889;28;19952;-75
2022/02/11 07:04:38;;;;;;;;;;;2.50;99.90;;;;;;5031752;28;20423;-75
2022/02/11 07:07:03;;;;;;;;;;;3.10;99.90;;;;;;5032154;28;19913;-75
2022/02/11 07:09:29;;;;;;;;;;;2.50;99.90;;;;;;5032792;28;19913;-75
2022/02/11 07:11:54;;;;;;;;;;;2.50;99.90;;;;;;5033340;28;19916;-75
2022/02/11 07:14:20;;;;;;;;;;;2.40;99.90;;;;;;5033267;28;19920;-75
2022/02/11 07:16:47;;;;;;;;;;;2.60;99.90;;;;;;5032877;28;19915;-75
2022/02/11 07:19:13;;;;;;;;;;;2.60;99.90;;;;;;5015303;28;20329;-74
2022/02/11 07:21:40;;;;;;;;;;;3.00;99.90;;;;;;5032513;28;19963;-74
2022/02/11 07:24:06;;;;;;;;;;;2.60;99.90;;;;;;5033163;28;19990;-75
2022/02/11 07:26:31;;;;;;;;;;;2.70;99.90;;;;;;5033172;28;20396;-75
2022/02/11 07:28:57;;;;;;;;;;;3.60;99.90;;;;;;5031703;28;20358;-75
2022/02/11 07:31:22;;;;;;;;;;;3.00;99.90;;;;;;5032079;28;20002;-75
2022/02/11 07:33:48;;;;;;;;;;;3.00;99.90;;;;;;5033042;28;20007;-74
2022/02/11 07:36:14;;;;;;;;;;;3.30;99.90;;;;;;5032894;28;20357;-75
2022/02/11 07:38:39;;;;;;;;;;;3.10;99.90;;;;;;5052027;28;19945;-74
2022/02/11 07:41:05;;;;;;;;;;;3.10;99.90;;;;;;5031746;28;19905;-75
2022/02/11 07:43:30;;;;;;;;;;;3.80;99.90;;;;;;5032380;28;19924;-74
2022/02/11 07:45:56;;;;;;;;;;;3.50;99.90;;;;;;5032118;28;20564;-74
2022/02/11 07:48:21;;;;;;;;;;;3.60;99.90;;;;;;5026282;28;19925;-74
2022/02/11 07:50:47;;;;;;;;;;;3.50;99.90;;;;;;5026645;28;19957;-74
2022/02/11 07:53:15;;;;;;;;;;;3.40;99.90;;;;;;5028628;28;19915;-74
2022/02/11 07:55:41;;;;;;;;;;;2.40;99.90;;;;;;5028244;28;20576;-75
2022/02/11 07:58:06;;;;;;;;;;;2.90;99.90;;;;;;5028019;28;19962;-74
2022/02/11 08:00:32;;;;;;;;;;;3.90;99.90;;;;;;5027232;28;19913;-75
2022/02/11 08:02:57;;;;;;;;;;;4.00;99.90;;;;;;5027062;28;20338;-75
2022/02/11 08:05:23;;;;;;;;;;;3.50;99.90;;;;;;5028727;28;19913;-75
2022/02/11 08:07:49;;;;;;;;;;;3.20;99.90;;;;;;5028005;28;19931;-75
2022/02/11 08:10:14;;;;;;;;;;;3.30;99.90;;;;;;5027472;28;19917;-74
2022/02/11 08:12:40;;;;;;;;;;;3.50;99.90;;;;;;5027626;28;19916;-75
2022/02/11 08:15:06;;;;;;;;;;;4.30;99.90;;;;;;5027909;28;19901;-75
2022/02/11 08:17:32;;;;;;;;;;;3.30;99.90;;;;;;5028201;28;19905;-75
2022/02/11 08:19:57;;;;;;;;;;;3.40;99.90;;;;;;5028149;28;19964;-74
2022/02/11 08:22:23;;;;;;;;;;;3.70;99.90;;;;;;5028164;28;20496;-75
2022/02/11 08:24:48;;;;;;;;;;;3.50;99.90;;;;;;5028899;28;19963;-75
2022/02/11 08:27:14;;;;;;;;;;;4.10;99.90;;;;;;5027665;28;20428;-75
2022/02/11 08:29:40;;;;;;;;;;;3.80;99.90;;;;;;5026940;28;20333;-74
2022/02/11 08:32:06;;;;;;;;;;;3.80;99.90;;;;;;5028488;28;19920;-75
2022/02/11 08:34:31;;;;;;;;;;;4.10;99.90;;;;;;5026849;28;20007;-75
2022/02/11 08:36:57;;;;;;;;;;;4.20;99.90;;;;;;5028570;28;19913;-74
2022/02/11 08:39:22;;;;;;;;;;;4.00;99.90;;;;;;5027748;28;19936;-75
2022/02/11 08:41:48;;;;;;;;;;;4.10;99.90;;;;;;5027749;28;19913;-75
2022/02/11 08:44:14;;;;;;;;;;;4.50;99.90;;;;;;5028994;28;20305;-75
2022/02/11 08:46:39;;;;;;;;;;;4.20;99.90;;;;;;5028023;28;20336;-75
2022/02/11 08:49:05;;;;;;;;;;;4.40;99.90;;;;;;5027781;28;19978;-75
2022/02/11 08:51:31;;;;;;;;;;;4.70;99.90;;;;;;5029336;28;20011;-75
2022/02/11 08:53:57;;;;;;;;;;;6.20;99.90;;;;;;5031726;28;19909;-75
2022/02/11 08:56:22;;;;;;;;;;;6.00;99.90;;;;;;5031441;28;19967;-75
2022/02/11 08:58:48;;;;;;;;;;;6.20;99.90;;;;;;5031497;28;20004;-75
2022/02/11 09:01:14;;;;;;;;;;;7.20;99.90;;;;;;5035012;28;19905;-75
2022/02/11 09:03:42;;;;;;;;;;;6.50;99.90;;;;;;5034030;28;19915;-75
2022/02/11 09:06:07;;;;;;;;;;;6.30;99.90;;;;;;5034858;28;20373;-75
2022/02/11 09:08:33;;;;;;;;;;;6.50;99.90;;;;;;5034487;28;19916;-75
2022/02/11 09:11:00;;;;;;;;;;;5.90;99.90;;;;;;5031561;28;20019;-75
2022/02/11 09:13:27;;;;;;;;;;;5.50;99.90;;;;;;5034128;28;19913;-75
2022/02/11 09:15:55;;;;;;;;;;;5.40;99.90;;;;;;5034747;28;19920;-75
2022/02/11 09:18:22;;;;;;;;;;;5.40;99.90;;;;;;5031914;28;19913;-75
2022/02/11 09:20:48;;;;;;;;;;;6.40;99.90;;;;;;5034493;28;19913;-75
2022/02/11 09:23:14;;;;;;;;;;;6.70;99.90;;;;;;5032177;28;19909;-75
2022/02/11 09:25:40;;;;;;;;;;;7.30;99.90;;;;;;5034825;28;20292;-75
2022/02/11 09:28:05;;;;;;;;;;;7.20;99.90;;;;;;5034922;28;20281;-75
2022/02/11 09:30:31;;;;;;;;;;;7.60;99.90;;;;;;5032905;28;19920;-77
2022/02/11 09:32:59;;;;;;;;;;;8.30;99.90;;;;;;5033324;28;20373;-75
2022/02/11 09:35:28;;;;;;;;;;;8.10;99.90;;;;;;5035165;28;19909;-75
2022/02/11 09:37:54;;;;;;;;;;;8.60;99.90;;;;;;5033614;28;20473;-75
2022/02/11 09:40:19;;;;;;;;;;;8.00;99.90;;;;;;5033716;28;19912;-75
2022/02/11 09:42:45;;;;;;;;;;;6.90;99.90;;;;;;5034742;28;19909;-75
2022/02/11 09:45:14;;;;;;;;;;;6.60;99.90;;;;;;5034765;28;19912;-76
2022/02/11 09:47:40;;;;;;;;;;;6.30;99.90;;;;;;5034947;28;19905;-75
2022/02/11 09:50:06;;;;;;;;;;;6.20;99.90;;;;;;5033320;28;19917;-75
2022/02/11 09:52:38;;;;;;;;;;;6.10;99.90;;;;;;5033010;28;19920;-76
2022/02/11 09:57:48;;;;;;;;;;;5.70;99.90;;;;;;5034634;28;20389;-75
2022/02/11 10:00:14;;;;;;;;;;;6.10;99.90;;;;;;5033151;28;19912;-76
2022/02/11 10:02:50;;;;;;;;;;;5.70;99.90;;;;;;5034717;28;19940;-76
2022/02/11 10:05:19;;;;;;;;;;;5.70;99.90;;;;;;5034277;28;19905;-75
2022/02/11 10:07:45;;;;;;;;;;;5.70;99.90;;;;;;5034206;28;19959;-75
2022/02/11 10:10:13;;;;;;;;;;;5.50;99.90;;;;;;5032221;28;20009;-75
2022/02/11 10:12:39;;;;;;;;;;;5.60;99.90;;;;;;5020753;28;19971;-75
2022/02/11 10:15:24;;;;;;;;;;;5.70;99.90;;;;;;5030400;28;19913;-75
2022/02/11 10:17:50;;;;;;;;;;;5.50;99.90;;;;;;5030319;28;20016;-75
2022/02/11 10:20:18;;;;;;;;;;;5.70;99.90;;;;;;5029547;28;20080;-75
2022/02/11 10:22:43;;;;;;;;;;;5.90;99.90;;;;;;5030027;28;20436;-75
2022/02/11 10:25:09;;;;;;;;;;;5.00;99.90;;;;;;5030093;28;20005;-75
2022/02/11 10:27:35;;;;;;;;;;;5.60;99.90;;;;;;5030081;28;19916;-75
2022/02/11 10:30:08;;;;;;;;;;;6.40;99.90;;;;;;5029893;28;19988;-75
2022/02/11 10:32:37;;;;;;;;;;;5.40;99.90;;;;;;5012615;28;19911;-75
2022/02/11 10:35:03;;;;;;;;;;;5.50;99.90;;;;;;5014230;28;19989;-75
2022/02/11 10:37:28;;;;;;;;;;;5.50;99.90;;;;;;5029309;28;19937;-75
2022/02/11 10:39:55;;;;;;;;;;;6.00;99.90;;;;;;5033194;28;19955;-75
2022/02/11 10:42:21;;;;;;;;;;;5.50;99.90;;;;;;5033470;28;19912;-75
2022/02/11 10:44:47;;;;;;;;;;;6.20;99.90;;;;;;5033584;28;19905;-75
2022/02/11 10:47:14;;;;;;;;;;;5.40;99.90;;;;;;5033511;28;19913;-75
2022/02/11 10:49:40;;;;;;;;;;;6.10;99.90;;;;;;5032649;28;19912;-75
2022/02/11 10:52:14;;;;;;;;;;;5.90;99.90;;;;;;5033381;28;20040;-75
2022/02/11 10:54:40;;;;;;;;;;;5.90;99.90;;;;;;5033605;28;19905;-75
2022/02/11 10:57:09;;;;;;;;;;;6.80;99.90;;;;;;5033946;28;19967;-76
2022/02/11 10:59:35;;;;;;;;;;;6.80;99.90;;;;;;5033937;28;20407;-75
2022/02/11 11:02:08;;;;;;;;;;;7.00;99.90;;;;;;5032981;28;19913;-75
2022/02/11 11:04:34;;;;;;;;;;;6.60;99.90;;;;;;5033646;28;19905;-75
2022/02/11 11:07:01;;;;;;;;;;;6.50;99.90;;;;;;5038556;28;19905;-74
2022/02/11 11:09:28;;;;;;;;;;;7.20;99.90;;;;;;5055354;28;19913;-75
2022/02/11 11:11:54;;;;;;;;;;;6.10;99.90;;;;;;5051396;28;19909;-75
2022/02/11 11:14:21;;;;;;;;;;;6.40;99.90;;;;;;5052756;28;19905;-75
2022/02/11 11:16:51;;;;;;;;;;;6.10;99.90;;;;;;5036712;28;19912;-75
2022/02/11 11:19:17;;;;;;;;;;;6.00;99.90;;;;;;5032541;28;19917;-75
2022/02/11 11:21:47;;;;;;;;;;;6.20;99.90;;;;;;5028571;28;19923;-75
2022/02/11 11:24:13;;;;;;;;;;;5.80;99.90;;;;;;5034237;28;19917;-75
2022/02/11 11:26:45;;;;;;;;;;;6.30;99.90;;;;;;5034975;28;19905;-75
2022/02/11 11:29:18;;;;;;;;;;;5.60;99.90;;;;;;5034655;28;19912;-75
2022/02/11 11:31:56;;;;;;;;;;;5.80;99.90;;;;;;5034871;28;20389;-75
2022/02/11 11:34:21;;;;;;;;;;;5.60;99.90;;;;;;5034529;28;19905;-74
2022/02/11 11:37:42;;;;;;;8.50;2.95;;;5.50;99.90;;;;;;5031338;28;20122;-74
2022/02/11 11:40:37;;;;;;;8.07;2.97;;;5.90;99.90;;;;;;5016707;28;20036;-75
2022/02/11 11:43:13;;;;;;;6.45;2.92;;;5.60;99.90;;;;;;4979707;28;20494;-74
2022/02/11 11:45:42;;;;;;;6.43;2.80;;;5.80;99.90;;;;;;5026229;28;20049;-74
2022/02/11 11:48:15;;;;;;;5.55;2.60;;;5.80;99.90;;;;;;5026710;28;20024;-74
2022/02/11 11:50:41;;;;;;;7.43;2.97;;;5.70;99.90;;;;;;4991391;28;20034;-73
2022/02/11 11:53:26;;;;;;;9.82;2.60;;;5.70;99.90;;;;;;5007798;28;20113;-73
2022/02/11 11:55:52;;;;;;;8.98;2.63;;;6.30;99.90;;;;;;5007609;28;20033;-74
2022/02/11 11:58:43;;;;;;;7.85;2.45;;;5.70;99.90;;;;;;5025326;28;20028;-74
2022/02/11 12:01:18;;;;;;;8.20;2.42;;;6.00;99.90;;;;;;5023457;28;20034;-76
2022/02/11 12:04:15;;;;;;;8.15;2.72;;;5.80;99.90;;;;;;5025349;28;20558;-76
2022/02/11 12:06:41;;;;;;;8.55;2.92;;;5.90;99.90;;;;;;5025135;28;20029;-74
2022/02/11 12:09:06;;;;;;;7.32;2.80;;;6.00;99.90;;;;;;5024486;28;20032;-74
2022/02/11 12:11:32;;;;;;;4.57;2.30;;;6.10;99.90;;;;;;5025419;28;20041;-74
2022/02/11 12:14:00;;;;;;;9.55;2.90;;;6.30;99.90;;;;;;5025234;28;20026;-76
2022/02/11 12:16:26;;;;;;;13.90;2.47;;;6.70;99.90;;;;;;5024936;28;20030;-76
2022/02/11 12:18:52;;;;;;;5.88;2.55;;;6.30;99.90;;;;;;5024373;28;20427;-75
2022/02/11 12:21:18;;;;;;;7.28;2.40;;;6.70;99.90;;;;;;5008707;28;20030;-74
2022/02/11 12:29:12;;;;;;;11.77;3.05;;;6.70;99.90;;;;;;5026328;28;20084;-74
2022/02/11 12:31:39;;;;;;;7.57;2.08;;;6.70;99.90;;;;;;5007237;28;20082;-74
2022/02/11 12:34:16;;;;;;;6.50;2.38;;;6.70;99.90;;;;;;5007636;28;20033;-74
2022/02/11 12:36:43;;;;;;;9.15;2.50;;;7.30;99.90;;;;;;5024391;28;20033;-74
2022/02/11 12:39:16;;;;;;;6.05;2.47;;;7.40;99.90;;;;;;5023915;28;20033;-74
2022/02/11 12:41:46;;;;;;;8.25;2.60;;;;;;;;;;5024197;28;20022;-74
2022/02/11 12:44:25;;;;;;;5.97;2.60;;;;;;;;;;5007193;28;20429;-74
2022/02/11 12:46:51;;;;;;;7.45;2.45;;;;;;;;;;5006162;28;20158;-75
2022/02/11 12:49:17;;;;;;;10.15;2.25;;;;;;;;;;4992732;28;20026;-74
2022/02/11 12:51:50;;;;;;;7.32;2.40;;;;;;;;;;5011137;28;20037;-75
2022/02/11 12:54:19;;;;;;;8.85;2.53;;;;;;;;;;5011277;28;20705;-75
2022/02/11 12:56:45;;;;;;;5.13;2.30;;;;;;;;;;5011456;28;20029;-75
2022/02/11 12:59:11;;;;;;;7.88;2.20;;;;;;;;;;4993383;28;20026;-75
2022/02/11 13:01:37;;;;;;;6.78;2.00;;;;;;;;;;5010448;28;20026;-75
2022/02/11 13:04:03;;;;;;;6.78;2.40;;;;;;;;;;5011465;28;20026;-74
2022/02/11 13:06:33;;;;;;;8.57;2.25;;;;;;;;;;5011138;28;20029;-74
2022/02/11 13:09:05;;;;;;;8.52;2.10;;;;;;;;;;5010642;28;20029;-74
2022/02/11 13:11:31;;;;;;;;;;;;;;;;;;4993946;28;20093;-74
2022/02/11 13:14:05;;;;;;;5.32;2.28;;;;;;;;;;5011187;28;20390;-74
2022/02/11 13:16:33;;;;;;;9.43;2.38;;;;;;;;;;4993487;28;20117;-74
2022/02/11 13:19:09;;;;;;;3.88;2.10;;;;;;;;;;5010752;28;20018;-74
2022/02/11 13:21:35;;;;;;;6.45;2.38;;;;;;;;;;5010933;28;20505;-74
2022/02/11 13:24:03;;;;;;;8.52;2.65;;;;;;;;;;5011133;28;20543;-74
2022/02/11 13:26:29;;;;;;;5.32;1.92;;;;;;;;;;5011202;28;20030;-74
2022/02/11 13:28:55;;;;;;;7.20;2.38;;;6.90;99.90;;;;;;5010207;28;20475;-74
2022/02/11 13:31:21;;;;;;;7.68;2.28;;;7.20;99.90;;;;;;5010403;28;20136;-73
2022/02/11 13:34:00;;;;;;;10.73;2.53;;;7.60;99.90;;;;;;5010599;28;20074;-74
2022/02/11 13:36:26;;;;;;;5.15;1.70;;;8.40;99.90;;;;;;5010675;28;20095;-74
2022/02/11 13:38:52;;;;;;;5.07;1.80;;;9.10;99.90;;;;;;5010252;28;20503;-74
2022/02/11 13:41:25;;;;;;;3.97;1.73;;;9.60;99.90;;;;;;5010317;28;20097;-75
2022/02/11 13:43:57;;;;;;;4.47;1.65;;;9.70;99.90;;;;;;4993070;28;20022;-75
2022/02/11 13:46:27;;;;;;;3.63;1.20;;;10.60;99.90;;;;;;5010501;28;20026;-74
2022/02/11 13:48:55;;;;;;;3.60;1.27;;;9.60;99.90;;;;;;4992699;28;20045;-75
2022/02/11 13:51:22;;;;;;;5.50;1.40;;;9.00;99.90;;;;;;5010624;28;20095;-75
2022/02/11 13:53:52;;;;;;;4.80;1.23;;;9.60;99.90;;;;;;4992743;28;20034;-75
2022/02/11 13:56:22;;;;;;;5.75;1.45;;;9.60;99.90;;;;;;4993120;28;20054;-75
2022/02/11 13:59:06;;;;;;;5.15;1.40;;;9.00;99.90;;;;;;5009379;28;20068;-75
2022/02/11 14:01:34;;;;;;;6.63;1.50;;;8.30;99.90;;;;;;4993185;28;20033;-75
2022/02/11 14:04:08;;;;;;;5.35;1.52;;;8.90;99.90;;;;;;5010589;28;20029;-75
2022/02/11 14:06:38;;;;;;;7.70;1.67;;;8.30;99.90;;;;;;4992760;28;20079;-74
2022/02/11 14:09:10;;;;;;;4.35;1.55;;;8.60;99.90;;;;;;5009625;28;20037;-74
2022/02/11 14:11:38;;;;;;;6.40;1.70;;;8.70;99.90;;;;;;5010483;28;20506;-75
2022/02/11 14:14:17;;;;;;;7.32;1.60;;;9.10;99.90;;;;;;5010436;28;20057;-75
2022/02/11 14:16:46;;;;;;;6.97;1.65;;;9.50;99.90;;;;;;5010003;28;20025;-75
2022/02/11 14:19:16;;;;;;;6.70;1.98;;;9.40;99.90;;;;;;5009407;28;20026;-74
2022/02/11 14:21:42;;;;;;;6.30;1.63;;;9.10;99.90;;;;;;4992389;28;20034;-75
2022/02/11 14:24:09;;;;;;;3.30;1.35;;;9.60;99.90;;;;;;4992771;28;20026;-75
2022/02/11 14:26:38;;;;;;;5.03;1.98;;;9.70;99.90;;;;;;5010001;28;20026;-75
2022/02/11 14:29:04;;;;;;;5.05;1.55;;;9.80;99.90;;;;;;5008987;28;21595;-74
2022/02/11 14:31:31;;;;;;;7.40;2.05;;;9.80;99.90;;;;;;5009828;28;20030;-74
2022/02/11 14:33:57;;;;;;;6.32;1.70;;;8.90;99.90;;;;;;5009806;28;20094;-74
2022/02/11 14:36:22;;;;;;;5.70;2.05;;;8.60;99.90;;;;;;5009763;28;20042;-74
2022/02/11 14:38:48;;;;;;;6.30;1.70;;;9.00;99.90;;;;;;4991396;28;20030;-74
2022/02/11 14:43:59;;;;;;;6.00;1.75;;;8.40;99.90;;;;;;5010050;28;20040;-74
2022/02/11 14:46:24;;;;;;;7.90;1.60;;;9.30;99.90;;;;;;5009543;28;20072;-74
2022/02/11 14:48:50;;;;;;;4.68;1.77;;;7.90;99.90;;;;;;5009181;28;20510;-74
2022/02/11 14:51:16;;;;;;;6.72;2.03;;;8.00;99.90;;;;;;5009461;28;20052;-74
2022/02/11 14:53:42;;;;;;;4.72;1.33;;;8.20;99.90;;;;;;5009671;28;20037;-74
2022/02/11 14:56:07;;;;;;;6.15;1.60;;;7.80;99.90;;;;;;5009558;28;20034;-74
2022/02/11 14:58:34;;;;;;;5.50;1.80;;;8.20;99.90;;;;;;4991725;28;20125;-74
2022/02/11 15:00:59;;;;;;;7.93;1.73;;;8.20;99.90;;;;;;5009429;28;20029;-74
2022/02/11 15:03:26;;;;;;;6.25;1.52;;;8.10;99.90;;;;;;5009466;28;20022;-74
2022/02/11 15:05:52;;;;;;;6.18;1.70;;;8.20;99.90;;;;;;5009305;28;20026;-74
2022/02/11 15:08:17;;;;;;;4.35;1.20;;;8.30;99.90;;;;;;5009231;28;20040;-74
2022/02/11 15:10:43;;;;;;;8.73;2.13;;;7.50;99.90;;;;;;5008557;28;20083;-74
2022/02/11 15:13:09;;;;;;;4.50;1.55;;;7.30;99.90;;;;;;5009398;28;20082;-74
2022/02/11 15:15:40;;;;;;;5.78;1.50;;;7.60;99.90;;;;;;4991739;28;20029;-74
2022/02/11 15:18:06;;;;;;;8.02;1.65;;;7.40;99.90;;;;;;5009110;28;20018;-74
2022/02/11 15:20:34;;;;;;;3.58;1.58;;;7.20;99.90;;;;;;5008644;28;20506;-74
2022/02/11 15:22:59;;;;;;;9.68;2.17;;;6.90;99.90;;;;;;5009395;28;20026;-74
2022/02/11 15:25:25;;;;;;;17.58;1.63;;;6.60;99.90;;;;;;5009192;28;20026;-74
2022/02/11 15:27:51;;;;;;;4.50;1.65;;;7.10;99.90;;;;;;5009192;28;20034;-75
2022/02/11 15:30:16;;;;;;;9.02;2.53;;;6.50;99.90;;;;;;5008385;28;20041;-74
2022/02/11 15:32:42;;;;;;;8.75;3.55;;;5.90;99.90;;;;;;5008916;28;20079;-75
2022/02/11 15:35:08;;;;;;;7.45;2.00;;;5.80;99.90;;;;;;5009190;28;20026;-75
2022/02/11 15:37:35;;;;;;;6.60;1.92;;;5.60;99.90;;;;;;5008828;28;20113;-75
2022/02/11 15:40:01;;;;;;;11.82;3.20;;;5.50;99.90;;;;;;5008014;28;20026;-75
2022/02/11 15:42:27;;;;;;;5.88;1.88;;;5.40;99.90;;;;;;5008965;28;20455;-75
2022/02/11 15:44:52;;;;;;;9.50;1.75;;;5.40;99.90;;;;;;4991381;28;20065;-75
2022/02/11 15:47:18;;;;;;;7.00;1.95;;;5.70;99.90;;;;;;4991397;28;20116;-76
2022/02/11 15:49:44;;;;;;;8.55;1.95;;;5.20;99.90;;;;;;5007789;28;20034;-75
2022/02/11 15:52:11;;;;;;;6.60;1.77;;;5.20;99.90;;;;;;5008667;28;20026;-75
2022/02/11 15:54:37;;;;;;;4.55;1.60;;;5.60;99.90;;;;;;4990997;28;20049;-75
2022/02/11 15:57:04;;;;;;;6.25;1.80;;;5.10;99.90;;;;;;5018491;28;20034;-74
2022/02/11 15:59:30;;;;;;;5.30;1.58;;;5.10;99.90;;;;;;5029496;28;20032;-75
2022/02/11 16:01:56;;;;;;;6.45;1.60;;;5.50;99.90;;;;;;5030808;28;20305;-75
2022/02/11 16:04:22;;;;;;;4.45;1.75;;;5.00;99.90;;;;;;4997500;28;20030;-75
2022/02/11 16:06:47;;;;;;;9.68;2.30;;;4.90;99.90;;;;;;5009230;28;20085;-73
2022/02/11 16:09:13;;;;;;;6.65;2.17;;;4.90;99.90;;;;;;5007990;28;20033;-74
2022/02/11 16:11:39;;;;;;;9.63;3.10;;;4.80;99.90;;;;;;4991210;28;20058;-75
2022/02/11 16:14:05;;;;;;;8.95;3.55;;;4.90;99.90;;;;;;5008943;28;20025;-75
2022/02/11 16:16:30;;;;;;;9.63;3.47;;;4.80;99.90;;;;;;5008680;28;20049;-75
2022/02/11 16:18:56;;;;;;;7.50;4.45;;;4.80;99.90;;;;;;5008140;28;20639;-75
2022/02/11 16:21:22;;;;;;;7.35;3.97;;;4.80;99.90;;;;;;5009132;28;20026;-78
2022/02/11 16:23:47;;;;;;;9.65;4.10;;;4.70;99.90;;;;;;4977368;28;20072;-76
2022/02/11 16:26:13;;;;;;;13.15;6.82;;;4.60;99.90;;;;;;4994390;28;20030;-75
2022/02/11 16:28:40;;;;;;;13.80;6.10;;;5.00;99.90;;;;;;4993530;28;20037;-75
2022/02/11 16:31:24;;;;;;;12.73;5.85;;;4.50;99.90;;;;;;5011830;28;20091;-75
2022/02/11 16:33:51;;;;;;;18.33;9.80;;;5.30;99.90;;;;;;4997919;28;20076;-79
2022/02/11 16:36:18;;;;;;;12.38;5.60;;;4.50;99.90;;;;;;5013846;28;20086;-78
2022/02/11 16:38:46;;;;;;;12.60;5.28;;;4.20;99.90;;;;;;4995130;28;20375;-75
2022/02/11 16:41:12;;;;;;;12.52;5.65;;;4.20;99.90;;;;;;4993612;28;20026;-77
2022/02/11 16:43:38;;;;;;;11.52;5.57;;;4.20;99.90;;;;;;5011747;28;20029;-76
2022/02/11 16:46:05;;;;;;;16.00;5.10;;;4.80;99.90;;;;;;4993851;28;20022;-74
2022/02/11 16:48:31;;;;;;;15.98;7.95;;;4.80;99.90;;;;;;4993096;28;20030;-76
2022/02/11 16:50:57;;;;;;;13.85;7.05;;;4.30;99.90;;;;;;5011425;28;20415;-76
2022/02/11 16:53:23;;;;;;;15.38;6.45;;;4.40;99.90;;;;;;4993919;28;20030;-74
2022/02/11 16:55:49;;;;;;;13.98;6.47;;;4.60;99.90;;;;;;5011111;28;20375;-76
2022/02/11 16:58:14;;;;;;;8.85;5.35;;;4.40;99.90;;;;;;5011411;28;20033;-76
2022/02/11 17:00:40;;;;;;;14.25;4.10;;;4.60;99.90;;;;;;4973737;28;20072;-76
2022/02/11 17:03:06;;;;;;;7.25;3.40;;;4.40;99.90;;;;;;4991586;28;20033;-76
2022/02/11 17:05:33;;;;;;;9.57;3.35;;;4.20;99.90;;;;;;4991830;28;20031;-75
2022/02/11 17:07:59;;;;;;;7.00;2.97;;;4.20;99.90;;;;;;4991544;28;20080;-75
2022/02/11 17:10:25;;;;;;;7.38;3.67;;;4.00;99.90;;;;;;4994530;28;20108;-75
2022/02/11 17:12:51;;;;;;;13.60;3.60;;;4.80;99.90;;;;;;4993961;28;20390;-76
2022/02/11 17:15:17;;;;;;;13.45;3.85;;;3.70;99.90;;;;;;5011338;28;20040;-76
2022/02/11 17:17:44;;;;;;;14.48;3.83;;;3.70;99.90;;;;;;5010784;28;20082;-75
2022/02/11 17:20:13;;;;;;;12.15;3.72;;;5.10;99.90;;;;;;5010697;28;20023;-75
2022/02/11 17:22:39;;;;;;;11.40;3.83;;;3.60;99.90;;;;;;4991767;23;20042;-77
2022/02/11 17:25:06;;;;;;;14.02;3.78;;;5.40;99.90;;;;;;4993316;28;20023;-78
2022/02/11 17:27:33;;;;;;;9.45;3.88;;;3.50;99.90;;;;;;4992878;28;20026;-78
2022/02/11 17:30:00;;;;;;;11.45;4.15;;;3.40;99.90;;;;;;4973499;28;20478;-80
2022/02/11 17:32:26;;;;;;;14.77;4.55;;;3.40;99.90;;;;;;5001118;28;20482;-78
2022/02/11 17:34:52;;;;;;;7.47;3.38;;;3.30;99.90;;;;;;4993528;28;20126;-78
2022/02/11 17:37:18;;;;;;;11.70;4.30;;;3.30;99.90;;;;;;5010956;28;20049;-78
2022/02/11 17:39:44;;;;;;;17.95;8.52;;;3.30;99.90;;;;;;4993207;28;20021;-79
2022/02/11 17:42:10;;;;;;;17.38;6.95;;;3.10;99.90;;;;;;5010626;28;20026;-77
2022/02/11 17:44:36;;;;;;;18.52;7.07;;;2.90;99.90;;;;;;4993444;28;20029;-76
2022/02/11 17:47:04;;;;;;;13.20;6.72;;;3.00;99.90;;;;;;5013674;28;20101;-78
2022/02/11 17:49:30;;;;;;;19.33;8.13;;;2.90;99.90;;;;;;5012204;28;20597;-78
2022/02/11 17:51:56;;;;;;;22.05;9.63;;;3.00;99.90;;;;;;4996489;28;20113;-78
2022/02/11 17:54:22;;;;;;;22.80;10.38;;;3.10;99.90;;;;;;5017713;28;20057;-79